Hauptseite
METAR-TAF:

METAR-TAF

Flughäfen :

Nörvenich, Deutschland

Fliegerhorst Nörvenich

Breite: 50-50N, Länge: 006-40E, Höhe: 118 m

Beobachtung

Neuester Wetterbericht von vor 1 Stunde und 9 Minuten, um 10:20 UTC
Wind 8 kt aus Ost
Temperatur 12°C
Luftfeuchtigkeit 50%
Luftdruck 1028 hPa
Sichtweite 10 km oder mehr
Durchbrochene Bewölkung in der Höhe von 25000 ft

METAR: ETNN 251020Z 08008KT 9999 BKN250 12/02 Q1028 BLU+

Zeit: 12:29 (11:29 UTC)

Prognose

Neuester Wetterbericht von vor 29 Minuten, um 11:00 UTC
Gültige Prognose vom 24 um 12 UTC bis 24 um 21 UTC
Wind 10 kt aus Ost/Nordost
Sichtweite 10 km oder mehr
Leicht bewölkt in der Höhe von 2500 ft
Durchbrochene Bewölkung in der Höhe von 22000 ft

TAF: ETNN 241100Z 2412/2421 07010KT 9999 NSW FEW025 BKN220 CANCEL BY ETGL

Wetterbeobachtungen und Prognosen von mehr als 4000 Flughäfen (METAR und TAF Bericht).

Die verfügbaren Stationen werden durch gelbe und rote Markierungen auf der Karte dargestellt.

Führen Sie die Maus auf sie, um den Namen der Station zu sehen.

Darauf klicken, um die Beobachtung von Wetterbeobachtungen und Prognosen zu sehen.

Um die Karte zu ändern : klicken Sie auf den grünen Tasten mit einem schwarzen Kreuz Zum Vergrößern, auf den grünen Button mit einem Gedankenstrich zu verkleinern, oder auf die grünen Pfeile für benachbarte Karten.


METAR-TAF: